Terminal Aerodrome Forecast
Issued by NWS Chicago, IL

Home | Current Version | Previous Version | Graphics & Text | Print | Product List | Glossary On
Versions: 1 2 3 4 5 6 7 8 9 10 11 12 13 14 15 16 17 18 19 20 21 22 23 24 25 26 27 28 29 30 31 32 33 34 35
000
FTUS43 KLOT 231129
TAFRFD
TAF
KRFD 231129Z 2312/2412 VRB03KT P6SM SCT200
     FM231300 17009KT P6SM BKN100
     FM231600 19011KT P6SM SCT060 BKN100
     FM240100 15006KT P6SM BKN060
     FM241000 14005KT P6SM SCT040 BKN060 PROB30 2410/2412 -SHRA=

USA.gov is the U.S. government's official web portal to all federal, state and local government web resources and services.